createdAt,value
2016-05-14T00:00:13.544Z,92.16
2016-05-14T00:01:13.546Z,92.69
2016-05-14T00:02:13.564Z,92.02
2016-05-14T00:03:13.489Z,91.59
2016-05-14T00:04:13.554Z,92.02
2016-05-14T00:05:13.573Z,92.02
2016-05-14T00:06:13.574Z,91.88
2016-05-14T00:07:13.563Z,92.45
2016-05-14T00:08:13.565Z,91.64
2016-05-14T00:09:13.568Z,91.64
2016-05-14T00:10:13.570Z,91.25
2016-05-14T00:11:13.573Z,91.54
2016-05-14T00:12:13.591Z,91.83
2016-05-14T00:13:13.579Z,91.74
2016-05-14T00:14:13.566Z,92.21
2016-05-14T00:15:13.568Z,92.02
2016-05-14T00:16:13.587Z,92.59
2016-05-14T00:17:13.573Z,92.21
2016-05-14T00:18:13.577Z,92.5
2016-05-14T00:19:13.579Z,92.11
2016-05-14T00:20:13.582Z,92.4
2016-05-14T00:21:13.600Z,92.02
2016-05-14T00:22:13.446Z,92.3
2016-05-14T00:23:13.434Z,92.3
2016-05-14T00:24:13.593Z,92.21
2016-05-14T00:25:13.595Z,92.21
2016-05-14T00:26:13.581Z,92.11
2016-05-14T00:27:13.584Z,92.5
2016-05-14T00:28:13.603Z,91.64
2016-05-14T00:29:13.434Z,91.83
2016-05-14T00:30:13.624Z,91.54
2016-05-14T00:31:13.439Z,92.35
2016-05-14T00:32:13.630Z,92.64
2016-05-14T00:33:13.617Z,92.16
2016-05-14T00:34:13.603Z,92.3
2016-05-14T00:35:13.449Z,92.93
2016-05-14T00:36:13.609Z,92.79
2016-05-14T00:37:13.596Z,92.93
2016-05-14T00:38:13.599Z,93.4
2016-05-14T00:39:13.602Z,92.45
2016-05-14T00:40:13.604Z,92.25
2016-05-14T00:41:13.607Z,92.54
2016-05-14T00:42:13.625Z,92.25
2016-05-14T00:43:13.612Z,92.54
2016-05-14T00:44:13.443Z,92.25
2016-05-14T00:45:13.617Z,92.35
2016-05-14T00:46:13.621Z,92.07
2016-05-14T00:47:13.499Z,92.83
2016-05-14T00:48:13.673Z,92.54
2016-05-14T00:49:13.613Z,92.74
2016-05-14T00:50:13.615Z,92.07
2016-05-14T00:51:13.634Z,92.45
2016-05-14T00:52:13.636Z,91.88
2016-05-14T00:53:13.670Z,92.54
2016-05-14T00:54:13.626Z,92.54
2016-05-14T00:55:13.629Z,92.69
2016-05-14T00:56:13.648Z,92.21
2016-05-14T00:57:13.634Z,92.59
2016-05-14T00:58:13.652Z,92.35
2016-05-14T00:59:13.639Z,92.21
2016-05-14T01:00:13.627Z,92.02
2016-05-14T01:01:13.645Z,92.4
2016-05-14T01:02:13.648Z,91.78
2016-05-14T01:03:14.072Z,92.35
2016-05-14T01:04:13.638Z,92.5
2016-05-14T01:05:13.640Z,92.79
2016-05-14T01:06:13.643Z,92.83
2016-05-14T01:07:13.646Z,92.16
2016-05-14T01:08:13.633Z,92.69
2016-05-14T01:09:13.652Z,92.5
2016-05-14T01:10:13.654Z,93.26
2016-05-14T01:11:13.641Z,93.45
2016-05-14T01:12:13.674Z,92.79
2016-05-14T01:13:13.677Z,92.69
2016-05-14T01:14:13.649Z,92.79
2016-05-14T01:15:13.667Z,92.02
2016-05-14T01:16:13.671Z,92.5
2016-05-14T01:17:13.657Z,92.69
2016-05-14T01:18:13.675Z,92.21
2016-05-14T01:19:13.663Z,92.83
2016-05-14T01:20:13.681Z,92.54
2016-05-14T01:21:13.667Z,92.54
2016-05-14T01:22:13.654Z,92.3
2016-05-14T01:23:13.673Z,91.3
2016-05-14T01:24:13.660Z,90.16
2016-05-14T01:25:13.709Z,90.39
2016-05-14T01:26:13.712Z,90.2
2016-05-14T01:27:13.684Z,90.01
2016-05-14T01:28:13.670Z,90.25
2016-05-14T01:29:13.689Z,90.3
2016-05-14T01:30:13.520Z,90.88
2016-05-14T01:31:13.695Z,90.63
2016-05-14T01:32:13.682Z,91.49
2016-05-14T01:33:13.700Z,91.64
2016-05-14T01:34:13.547Z,92.16
2016-05-14T01:35:13.737Z,92.07
2016-05-14T01:36:13.802Z,91.49
2016-05-14T01:37:13.679Z,91.3
2016-05-14T01:38:13.682Z,91.02
2016-05-14T01:39:18.528Z,90.25
2016-05-14T01:40:13.703Z,90.06
2016-05-14T01:41:13.690Z,90.16
2016-05-14T01:42:13.694Z,90.82
2016-05-14T01:43:13.695Z,91.78
2016-05-14T01:44:13.698Z,91.97
2016-05-14T01:45:13.701Z,91.39
2016-05-14T01:46:13.704Z,91.88
2016-05-14T01:47:13.550Z,92.45
2016-05-14T01:48:13.709Z,92.25
2016-05-14T01:49:13.712Z,92.25
2016-05-14T01:50:13.557Z,92.64
2016-05-14T01:51:13.702Z,92.45
2016-05-14T01:52:13.720Z,92.35
2016-05-14T01:53:13.723Z,92.11
2016-05-14T01:54:13.709Z,92.25
2016-05-14T01:55:13.712Z,91.78
2016-05-14T01:56:13.559Z,92.64
2016-05-14T01:57:13.717Z,92.3
2016-05-14T01:58:13.737Z,92.5
2016-05-14T01:59:13.723Z,92.59
2016-05-14T02:00:13.570Z,92.3
2016-05-14T02:01:13.572Z,92.5
2016-05-14T02:02:13.747Z,93.26
2016-05-14T02:03:13.843Z,92.69
2016-05-14T02:04:13.720Z,92.88
2016-05-14T02:05:13.739Z,93.45
2016-05-14T02:06:13.757Z,93.07
2016-05-14T02:07:13.744Z,93.07
2016-05-14T02:08:13.731Z,92.88
2016-05-14T02:09:13.578Z,93.65
2016-05-14T02:10:13.737Z,93.55
2016-05-14T02:11:13.755Z,93.45
2016-05-14T02:12:13.742Z,94.02
2016-05-14T02:13:13.760Z,94.02
2016-05-14T02:14:13.747Z,93.26
2016-05-14T02:15:13.579Z,93.65
2016-05-14T02:16:13.738Z,94.02
2016-05-14T02:17:13.772Z,94.02
2016-05-14T02:18:13.587Z,93.65
2016-05-14T02:19:13.761Z,94.12
2016-05-14T02:20:13.592Z,94.51
2016-05-14T02:21:13.751Z,94.6
2016-05-14T02:22:13.754Z,94.31
2016-05-14T02:23:13.600Z,93.55
2016-05-14T02:24:13.759Z,93.45
2016-05-14T02:25:13.746Z,94.12
2016-05-14T02:26:13.796Z,94.31
2016-05-14T02:27:13.595Z,94.12
2016-05-14T02:28:13.597Z,94.7
2016-05-14T02:29:13.757Z,95.27
2016-05-14T02:30:13.776Z,95.56
2016-05-14T02:31:13.762Z,94.89
2016-05-14T02:32:13.765Z,94.79
2016-05-14T02:33:13.799Z,94.79
2016-05-14T02:34:13.770Z,94.89
2016-05-14T02:35:13.773Z,95.07
2016-05-14T02:36:13.775Z,94.89
2016-05-14T02:37:13.809Z,94.27
2016-05-14T02:38:13.641Z,93.88
2016-05-14T02:39:13.784Z,93.88
2016-05-14T02:40:13.772Z,94.27
2016-05-14T02:41:13.789Z,94.51
2016-05-14T02:42:13.697Z,95.17
2016-05-14T02:43:13.841Z,95.61
2016-05-14T02:44:13.625Z,94.89
2016-05-14T02:45:13.800Z,95.56
2016-05-14T02:46:13.787Z,95.51
2016-05-14T02:47:13.790Z,95.51
2016-05-14T02:48:13.793Z,95.51
2016-05-14T02:49:13.795Z,95.61
2016-05-14T02:50:13.782Z,95.98
2016-05-14T02:51:13.628Z,95.32
2016-05-14T02:52:13.787Z,95.22
2016-05-14T02:53:13.807Z,95.51
2016-05-14T02:54:13.792Z,96.37
2016-05-14T02:55:13.795Z,95.98
2016-05-14T02:56:13.814Z,96.27
2016-05-14T02:57:13.801Z,95.98
2016-05-14T02:58:13.820Z,95.98
2016-05-14T02:59:13.806Z,96.37
2016-05-14T03:00:13.809Z,96.56
2016-05-14T03:01:13.811Z,95.79
2016-05-14T03:02:13.830Z,96.08
2016-05-14T03:03:13.833Z,96.27
2016-05-14T03:04:13.804Z,95.98
2016-05-14T03:05:13.806Z,96.27
2016-05-14T03:06:13.825Z,96.17
2016-05-14T03:07:13.797Z,95.7
2016-05-14T03:08:13.799Z,96.27
2016-05-14T03:09:13.833Z,96.17
2016-05-14T03:10:13.820Z,96.17
2016-05-14T03:11:13.822Z,96.17
2016-05-14T03:12:13.825Z,95.89
2016-05-14T03:13:13.828Z,96.08
2016-05-14T03:14:13.816Z,96.17
2016-05-14T03:15:13.818Z,96.08
2016-05-14T03:16:13.821Z,95.41
2016-05-14T03:17:13.808Z,95.12
2016-05-14T03:18:13.982Z,95.51
2016-05-14T03:19:13.813Z,95.22
2016-05-14T03:20:13.815Z,95.51
2016-05-14T03:21:13.834Z,95.98
2016-05-14T03:22:13.837Z,95.89
2016-05-14T03:23:13.668Z,96.17
2016-05-14T03:24:13.811Z,96.46
2016-05-14T03:25:13.673Z,96.46
2016-05-14T03:26:13.832Z,96.27
2016-05-14T03:27:13.834Z,96.27
2016-05-14T03:28:13.837Z,95.89
2016-05-14T03:29:13.840Z,96.27
2016-05-14T03:30:13.842Z,96.56
2016-05-14T03:31:13.830Z,95.89
2016-05-14T03:32:13.848Z,96.17
2016-05-14T03:33:13.835Z,96.37
2016-05-14T03:34:13.853Z,96.17
2016-05-14T03:35:13.856Z,96.08
2016-05-14T03:36:13.828Z,96.17
2016-05-14T03:37:13.845Z,95.98
2016-05-14T03:38:13.848Z,96.27
2016-05-14T03:39:13.836Z,96.08
2016-05-14T03:40:13.854Z,95.89
2016-05-14T03:41:13.841Z,97.03
2016-05-14T03:42:13.859Z,96.46
2016-05-14T03:43:13.847Z,96.75
2016-05-14T03:44:13.880Z,96.37
2016-05-14T03:45:13.836Z,96.66
2016-05-14T03:46:13.854Z,96.75
2016-05-14T03:47:13.701Z,96.56
2016-05-14T03:48:13.704Z,96.46
2016-05-14T03:49:13.862Z,96.84
2016-05-14T03:50:13.865Z,96.56
2016-05-14T03:51:13.868Z,96.84
2016-05-14T03:52:13.855Z,96.94
2016-05-14T03:53:13.857Z,96.94
2016-05-14T03:54:13.860Z,96.75
2016-05-14T03:55:13.863Z,96.56
2016-05-14T03:56:13.865Z,96.66
2016-05-14T03:57:13.854Z,96.84
2016-05-14T03:58:13.870Z,96.84
2016-05-14T03:59:13.858Z,96.75
2016-05-14T04:00:13.862Z,96.66
2016-05-14T04:01:13.723Z,96.75
2016-05-14T04:02:13.867Z,96.56
2016-05-14T04:03:13.931Z,96.94
2016-05-14T04:04:13.872Z,96.75
2016-05-14T04:05:13.875Z,96.84
2016-05-14T04:06:13.877Z,96.84
2016-05-14T04:07:13.708Z,96.08
2016-05-14T04:08:13.867Z,96.27
2016-05-14T04:09:13.886Z,96.37
2016-05-14T04:10:13.873Z,96.56
2016-05-14T04:11:13.875Z,96.56
2016-05-14T04:12:13.862Z,96.46
2016-05-14T04:13:13.880Z,96.84
2016-05-14T04:14:13.867Z,96.56
2016-05-14T04:15:13.869Z,96.27
2016-05-14T04:16:13.872Z,96.56
2016-05-14T04:17:13.891Z,96.27
2016-05-14T04:18:14.035Z,95.98
2016-05-14T04:19:13.865Z,96.27
2016-05-14T04:20:13.717Z,96.46
2016-05-14T04:21:13.920Z,96.37
2016-05-14T04:22:13.965Z,96.56
2016-05-14T04:23:14.011Z,96.27
2016-05-14T04:24:13.915Z,96.56
2016-05-14T04:25:14.098Z,95.98
2016-05-14T04:26:14.117Z,96.08
2016-05-14T04:27:14.134Z,96.46
2016-05-14T04:28:14.137Z,96.27
2016-05-14T04:29:14.155Z,95.7
2016-05-14T04:30:14.171Z,95.22
2016-05-14T04:31:14.180Z,95.03
2016-05-14T04:32:14.204Z,95.51
2016-05-14T04:33:14.478Z,95.41
2016-05-14T04:34:14.049Z,94.74
2016-05-14T04:35:14.213Z,94.46
2016-05-14T04:36:14.218Z,94.27
2016-05-14T04:37:14.223Z,93.41
2016-05-14T04:38:14.243Z,92.45
2016-05-14T04:39:14.232Z,92.55
2016-05-14T04:40:14.220Z,92.55
2016-05-14T04:41:14.224Z,92.55
2016-05-14T04:42:14.243Z,92.26
2016-05-14T04:43:14.247Z,92.36
2016-05-14T04:44:14.234Z,92.69
2016-05-14T04:45:14.223Z,92.45
2016-05-14T04:46:14.225Z,92.79
2016-05-14T04:47:14.229Z,91.4
2016-05-14T04:48:14.246Z,91.54
2016-05-14T04:49:14.250Z,92.3
2016-05-14T04:50:14.238Z,92.3
2016-05-14T04:51:14.240Z,92.16
2016-05-14T04:52:14.243Z,92.07
2016-05-14T04:53:14.260Z,91.69
2016-05-14T04:54:14.248Z,90.68
2016-05-14T04:55:14.251Z,91.64
2016-05-14T04:56:14.254Z,91.4
2016-05-14T04:57:14.257Z,91.4
2016-05-14T04:58:14.259Z,92.93
2016-05-14T04:59:14.293Z,91.59
2016-05-14T05:00:14.279Z,91.74
2016-05-14T05:01:14.251Z,91.25
2016-05-14T05:02:14.285Z,91.59
2016-05-14T05:03:14.256Z,91.21
2016-05-14T05:04:14.260Z,91.45
2016-05-14T05:05:14.262Z,91.45
2016-05-14T05:06:14.093Z,91.45
2016-05-14T05:07:14.268Z,90.88
2016-05-14T05:08:14.270Z,90.78
2016-05-14T05:09:14.289Z,90.54
2016-05-14T05:10:14.119Z,90.97
2016-05-14T05:11:14.106Z,90.01
2016-05-14T05:12:14.297Z,90.2
2016-05-14T05:13:14.128Z,90.78
2016-05-14T05:14:14.303Z,90.49
2016-05-14T05:15:14.289Z,90.39
2016-05-14T05:16:14.292Z,90.3
2016-05-14T05:17:14.279Z,90.2
2016-05-14T05:18:14.313Z,90.97
2016-05-14T05:19:14.268Z,90.2
2016-05-14T05:20:14.288Z,89.92
2016-05-14T05:21:14.274Z,90.11
2016-05-14T05:22:14.308Z,89.73
2016-05-14T05:23:14.139Z,89.92
2016-05-14T05:24:14.282Z,90.3
2016-05-14T05:25:14.285Z,90.68
2016-05-14T05:26:14.115Z,90.49
2016-05-14T05:27:14.290Z,90.3
2016-05-14T05:28:14.309Z,90.39
2016-05-14T05:29:14.124Z,89.53
2016-05-14T05:30:14.282Z,89.82
2016-05-14T05:31:14.301Z,90.59
2016-05-14T05:32:14.288Z,89.82
2016-05-14T05:33:14.150Z,90.11
2016-05-14T05:34:14.309Z,90.01
2016-05-14T05:35:14.296Z,89.82
2016-05-14T05:36:14.314Z,90.11
2016-05-14T05:37:14.301Z,90.59
2016-05-14T05:38:14.320Z,90.88
2016-05-14T05:39:14.306Z,90.2
2016-05-14T05:40:14.325Z,90.78
2016-05-14T05:41:14.327Z,90.68
2016-05-14T05:42:14.314Z,90.59
2016-05-14T05:43:14.303Z,90.68
2016-05-14T05:44:14.305Z,90.68
2016-05-14T05:45:14.214Z,90.88
2016-05-14T05:46:14.325Z,90.68
2016-05-14T05:47:14.313Z,90.2
2016-05-14T05:48:14.331Z,90.49
2016-05-14T05:49:14.318Z,90.78
2016-05-14T05:50:14.321Z,90.78
2016-05-14T05:51:14.307Z,91.54
2016-05-14T05:52:14.327Z,91.78
2016-05-14T05:53:14.314Z,91.69
2016-05-14T05:54:14.316Z,91.64
2016-05-14T05:55:14.319Z,91.16
2016-05-14T05:56:14.321Z,91.64
2016-05-14T05:57:14.324Z,90.68
2016-05-14T05:58:14.327Z,90.88
2016-05-14T05:59:14.329Z,90.68
2016-05-14T06:00:14.160Z,90.68
2016-05-14T06:01:14.162Z,91.45
2016-05-14T06:02:14.166Z,91.16
2016-05-14T06:03:14.184Z,90.39
2016-05-14T06:04:14.452Z,90.11
2016-05-14T06:05:14.174Z,90.11
2016-05-14T06:06:14.348Z,90.11
2016-05-14T06:07:14.335Z,89.63
2016-05-14T06:08:14.323Z,89.34
2016-05-14T06:09:14.340Z,89.63
2016-05-14T06:10:14.328Z,88.68
2016-05-14T06:11:14.330Z,88.96
2016-05-14T06:12:14.333Z,88.87
2016-05-14T06:13:14.336Z,89.15
2016-05-14T06:14:14.339Z,89.06
2016-05-14T06:15:14.342Z,88.53
2016-05-14T06:16:14.344Z,88.05
2016-05-14T06:17:14.347Z,88.34
2016-05-14T06:18:14.349Z,88.05
2016-05-14T06:19:14.196Z,87.19
2016-05-14T06:20:14.354Z,86.61
2016-05-14T06:21:14.357Z,86.23
2016-05-14T06:22:14.360Z,85.75
2016-05-14T06:23:14.347Z,85.18
2016-05-14T06:24:14.350Z,84.42
2016-05-14T06:25:14.352Z,84.23
2016-05-14T06:26:14.199Z,84.7
2016-05-14T06:27:14.357Z,84.7
2016-05-14T06:28:14.360Z,84.32
2016-05-14T06:29:14.363Z,83.08
2016-05-14T06:30:14.365Z,83.65
2016-05-14T06:31:14.368Z,83.56
2016-05-14T06:32:14.199Z,83.56
2016-05-14T06:33:14.374Z,82.03
2016-05-14T06:34:14.237Z,82.89
2016-05-14T06:35:14.223Z,83.75
2016-05-14T06:36:14.382Z,82.98
2016-05-14T06:37:14.369Z,83.65
2016-05-14T06:38:14.387Z,82.79
2016-05-14T06:39:14.375Z,82.89
2016-05-14T06:40:14.377Z,83.65
2016-05-14T06:41:14.395Z,83.17
2016-05-14T06:42:14.382Z,82.89
2016-05-14T06:43:14.385Z,83.75
2016-05-14T06:44:14.389Z,84.13
2016-05-14T06:45:14.391Z,84.03
2016-05-14T06:46:14.394Z,82.79
2016-05-14T06:47:14.396Z,82.41
2016-05-14T06:48:14.242Z,82.12
2016-05-14T06:49:14.417Z,82.17
2016-05-14T06:50:14.404Z,81.11
2016-05-14T06:51:14.391Z,81.11
2016-05-14T06:52:14.409Z,80.92
2016-05-14T06:53:14.428Z,80.73
2016-05-14T06:54:14.400Z,81.3
2016-05-14T06:55:14.418Z,80.73
2016-05-14T06:56:14.452Z,81.68
2016-05-14T06:57:14.407Z,80.73
2016-05-14T06:58:14.410Z,79.96
2016-05-14T06:59:14.429Z,79.77
2016-05-14T07:00:14.415Z,79.96
2016-05-14T07:01:14.418Z,79.14
2016-05-14T07:02:14.420Z,79.62
2016-05-14T07:03:14.579Z,79.62
2016-05-14T07:04:14.426Z,79.24
2016-05-14T07:05:14.428Z,78.57
2016-05-14T07:06:14.432Z,77.51
2016-05-14T07:07:14.278Z,77.9
2016-05-14T07:08:14.421Z,76.94
2016-05-14T07:09:14.456Z,76.94
2016-05-14T07:10:14.301Z,77.8
2016-05-14T07:11:14.289Z,76.27
2016-05-14T07:12:14.463Z,75.31
2016-05-14T07:13:14.450Z,77.8
2016-05-14T07:14:14.453Z,76.27
2016-05-14T07:15:14.456Z,76.46
2016-05-14T07:16:14.443Z,76.46
2016-05-14T07:17:14.461Z,76.65
2016-05-14T07:18:14.464Z,75.89
2016-05-14T07:19:14.451Z,76.94
2016-05-14T07:20:14.453Z,76.27
2016-05-14T07:21:14.456Z,76.46
2016-05-14T07:22:14.474Z,76.75
2016-05-14T07:23:14.321Z,77.04
2016-05-14T07:24:14.480Z,77.57
2016-05-14T07:25:14.311Z,78.05
2016-05-14T07:26:14.470Z,77.48
2016-05-14T07:27:14.471Z,78.81
2016-05-14T07:28:14.491Z,78.91
2016-05-14T07:29:14.322Z,79.1
2016-05-14T07:30:14.480Z,79.77
2016-05-14T07:31:14.483Z,79.54
2016-05-14T07:32:14.485Z,79.16
2016-05-14T07:33:14.488Z,78.78
2016-05-14T07:34:14.960Z,79.54
2016-05-14T07:35:14.493Z,79.73
2016-05-14T07:36:14.496Z,79.44
2016-05-14T07:37:14.515Z,78.49
2016-05-14T07:38:14.330Z,79.06
2016-05-14T07:39:14.365Z,79.54
2016-05-14T07:40:14.523Z,78.58
2016-05-14T07:41:14.495Z,79.73
2016-05-14T07:42:14.497Z,78.87
2016-05-14T07:43:14.499Z,79.73
2016-05-14T07:44:14.362Z,79.96
2016-05-14T07:45:14.520Z,78.53
2016-05-14T07:46:14.508Z,78.05
2016-05-14T07:47:14.511Z,77.19
2016-05-14T07:48:15.029Z,76.42
2016-05-14T07:49:14.548Z,76.33
2016-05-14T07:50:14.362Z,77
2016-05-14T07:51:14.365Z,76.42
2016-05-14T07:52:14.524Z,75.95
2016-05-14T07:53:14.542Z,76.23
2016-05-14T07:54:14.530Z,76.62
2016-05-14T07:55:14.532Z,77.48
2016-05-14T07:56:14.535Z,76.62
2016-05-14T07:57:14.553Z,77.57
2016-05-14T07:58:14.540Z,77.57
2016-05-14T07:59:14.543Z,77.28
2016-05-14T08:00:14.546Z,76.81
2016-05-14T08:01:14.533Z,76.9
2016-05-14T08:02:14.441Z,76.42
2016-05-14T08:03:14.585Z,76.52
2016-05-14T08:04:14.557Z,76.57
2016-05-14T08:05:14.559Z,76.86
2016-05-14T08:06:14.546Z,75.95
2016-05-14T08:07:14.564Z,75.66
2016-05-14T08:08:14.567Z,74.99
2016-05-14T08:09:14.554Z,74.8
2016-05-14T08:10:14.401Z,75.18
2016-05-14T08:11:14.576Z,74.32
2016-05-14T08:12:14.562Z,74.19
2016-05-14T08:13:14.564Z,74.48
2016-05-14T08:14:14.426Z,74.28
2016-05-14T08:15:14.570Z,74.19
2016-05-14T08:16:14.557Z,74.32
2016-05-14T08:17:14.575Z,73.94
2016-05-14T08:18:15.109Z,74.61
2016-05-14T08:19:14.440Z,74.04
2016-05-14T08:20:14.567Z,72.98
2016-05-14T08:21:14.570Z,72.6
2016-05-14T08:22:14.573Z,72.63
2016-05-14T08:23:14.576Z,71.48
2016-05-14T08:24:14.578Z,70.81
2016-05-14T08:25:14.597Z,69.42
2016-05-14T08:26:14.584Z,68.55
2016-05-14T08:27:14.586Z,67.82
2016-05-14T08:28:14.621Z,67.25
2016-05-14T08:29:14.591Z,68.21
2016-05-14T08:30:14.594Z,67.91
2016-05-14T08:31:14.597Z,68.21
2016-05-14T08:32:14.600Z,68.11
2016-05-14T08:33:14.619Z,68.59
2016-05-14T08:34:14.622Z,68.11
2016-05-14T08:35:14.608Z,67.05
2016-05-14T08:36:14.627Z,66.03
2016-05-14T08:37:14.613Z,66.32
2016-05-14T08:38:14.616Z,66.51
2016-05-14T08:39:14.635Z,66.42
2016-05-14T08:40:14.637Z,67.44
2016-05-14T08:41:14.656Z,68.01
2016-05-14T08:42:14.627Z,68.97
2016-05-14T08:43:14.645Z,68.78
2016-05-14T08:44:14.632Z,70.09
2016-05-14T08:45:14.651Z,69.51
2016-05-14T08:46:14.638Z,70.09
2016-05-14T08:47:14.672Z,70.15
2016-05-14T08:48:14.675Z,70.72
2016-05-14T08:49:14.678Z,71.11
2016-05-14T08:50:14.648Z,70.62
2016-05-14T08:51:14.511Z,71.11
2016-05-14T08:52:14.513Z,71.77
2016-05-14T08:53:14.672Z,72.5
2016-05-14T08:54:14.659Z,71.36
2016-05-14T08:55:14.694Z,71.83
2016-05-14T08:56:14.680Z,72.02
2016-05-14T08:57:14.683Z,71.26
2016-05-14T08:58:14.686Z,71.45
2016-05-14T08:59:14.673Z,71.45
2016-05-14T09:00:14.691Z,71.45
2016-05-14T09:01:14.678Z,70.62
2016-05-14T09:02:14.680Z,69.95
2016-05-14T09:03:14.683Z,69.76
2016-05-14T09:04:14.546Z,69.86
2016-05-14T09:05:14.688Z,69.67
2016-05-14T09:06:14.691Z,70.43
2016-05-14T09:07:14.709Z,70.78
2016-05-14T09:08:14.697Z,71.45
2016-05-14T09:09:14.700Z,71.36
2016-05-14T09:10:14.702Z,71.16
2016-05-14T09:11:14.721Z,71.45
2016-05-14T09:12:14.567Z,71.07
2016-05-14T09:13:14.710Z,71.07
2016-05-14T09:14:14.573Z,72.12
2016-05-14T09:15:14.715Z,72.02
2016-05-14T09:16:14.718Z,72.79
2016-05-14T09:17:14.720Z,73.04
2016-05-14T09:18:15.083Z,73.14
2016-05-14T09:19:14.727Z,73.71
2016-05-14T09:20:14.728Z,73.61
2016-05-14T09:21:14.732Z,73.71
2016-05-14T09:22:14.750Z,73.43
2016-05-14T09:23:14.737Z,73.33
2016-05-14T09:24:14.740Z,73.8
2016-05-14T09:25:14.742Z,73.8
2016-05-14T09:26:14.761Z,73.71
2016-05-14T09:27:14.747Z,73.8
2016-05-14T09:28:14.750Z,73.52
2016-05-14T09:29:14.753Z,73.71
2016-05-14T09:30:14.755Z,73.23
2016-05-14T09:31:14.759Z,72.5
2016-05-14T09:32:14.761Z,72.69
2016-05-14T09:33:14.624Z,72.79
2016-05-14T09:34:14.892Z,72.69
2016-05-14T09:35:14.754Z,72.5
2016-05-14T09:36:14.757Z,72.6
2016-05-14T09:37:14.774Z,71.93
2016-05-14T09:38:14.762Z,71.64
2016-05-14T09:39:14.765Z,72.12
2016-05-14T09:40:14.611Z,72.41
2016-05-14T09:41:14.614Z,71.83
2016-05-14T09:42:14.772Z,71.93
2016-05-14T09:43:14.775Z,71.45
2016-05-14T09:44:14.779Z,72.12
2016-05-14T09:45:14.625Z,72.12
2016-05-14T09:46:14.784Z,71.55
2016-05-14T09:47:14.786Z,71.07
2016-05-14T09:48:14.976Z,71.45
2016-05-14T09:49:14.823Z,71.45
2016-05-14T09:50:14.794Z,71.83
2016-05-14T09:51:14.797Z,71.73
2016-05-14T09:52:14.784Z,71.45
2016-05-14T09:53:14.802Z,70.97
2016-05-14T09:54:14.820Z,70.4
2016-05-14T09:55:14.808Z,69.92
2016-05-14T09:56:14.842Z,70.05
2016-05-14T09:57:14.813Z,69.38
2016-05-14T09:58:14.644Z,69.44
2016-05-14T09:59:14.819Z,69.29
2016-05-14T10:00:14.665Z,68.9
2016-05-14T10:01:14.824Z,69.29
2016-05-14T10:02:14.827Z,69
2016-05-14T10:03:14.829Z,68.71
2016-05-14T10:04:14.879Z,68.52
2016-05-14T10:05:14.819Z,67.76
2016-05-14T10:06:14.681Z,67.18
2016-05-14T10:07:14.855Z,65.97
2016-05-14T10:08:14.843Z,66.16
2016-05-14T10:09:14.861Z,65.39
2016-05-14T10:10:14.849Z,65.68
2016-05-14T10:11:14.850Z,65.11
2016-05-14T10:12:14.838Z,64.63
2016-05-14T10:13:14.857Z,63.6
2016-05-14T10:14:14.859Z,63.32
2016-05-14T10:15:14.862Z,62.55
2016-05-14T10:16:14.879Z,63.13
2016-05-14T10:17:14.851Z,62.84
2016-05-14T10:18:14.807Z,63.22
2016-05-14T10:19:14.887Z,63.86
2016-05-14T10:20:14.875Z,64.82
2016-05-14T10:21:14.892Z,64.53
2016-05-14T10:22:14.880Z,65.2
2016-05-14T10:23:14.884Z,65.74
2016-05-14T10:24:14.730Z,66.7
2016-05-14T10:25:14.889Z,67.18
2016-05-14T10:26:14.891Z,67.18
2016-05-14T10:27:14.894Z,67.85
2016-05-14T10:28:14.912Z,67.82
2016-05-14T10:29:14.899Z,68.49
2016-05-14T10:30:14.933Z,68.77
2016-05-14T10:31:14.920Z,68.87
2016-05-14T10:32:14.922Z,68.01
2016-05-14T10:33:14.925Z,68.49
2016-05-14T10:34:14.772Z,68.58
2016-05-14T10:35:14.915Z,68.29
2016-05-14T10:36:14.933Z,68.77
2016-05-14T10:37:14.936Z,68.39
2016-05-14T10:38:14.939Z,68.55
2016-05-14T10:39:14.927Z,68.96
2016-05-14T10:40:14.929Z,69.06
2016-05-14T10:41:14.947Z,68.58
2016-05-14T10:42:14.935Z,68.29
2016-05-14T10:43:14.781Z,68.49
2016-05-14T10:44:14.955Z,68.68
2016-05-14T10:45:14.942Z,68.55
2016-05-14T10:46:14.929Z,68.26
2016-05-14T10:47:14.948Z,69.06
2016-05-14T10:48:15.059Z,69.15
2016-05-14T10:49:14.953Z,69.12
2016-05-14T10:50:14.955Z,69.21
2016-05-14T10:51:14.942Z,69.31
2016-05-14T10:52:14.962Z,68.93
2016-05-14T10:53:14.948Z,68.45
2016-05-14T10:54:14.966Z,68.84
2016-05-14T10:55:14.969Z,69.7
2016-05-14T10:56:14.956Z,69.31
2016-05-14T10:57:14.959Z,69.31
2016-05-14T10:58:14.961Z,69.79
2016-05-14T10:59:14.964Z,69.6
2016-05-14T11:00:14.811Z,70.61
2016-05-14T11:01:14.970Z,70.61
2016-05-14T11:02:14.957Z,71.09
2016-05-14T11:03:15.491Z,71.19
2016-05-14T11:04:15.305Z,70.71
2016-05-14T11:05:14.996Z,70.71
2016-05-14T11:06:14.999Z,69.6
2016-05-14T11:07:14.829Z,69.41
2016-05-14T11:08:15.005Z,69.31
2016-05-14T11:09:14.990Z,69.98
2016-05-14T11:10:14.837Z,69.7
2016-05-14T11:11:14.997Z,69.79
2016-05-14T11:12:14.999Z,69.79
2016-05-14T11:13:14.987Z,69.21
2016-05-14T11:14:14.989Z,68.84
2016-05-14T11:15:14.992Z,68.07
2016-05-14T11:16:15.010Z,68.26
2016-05-14T11:17:15.013Z,68.07
2016-05-14T11:18:15.000Z,68.55
2016-05-14T11:19:15.284Z,68.93
2016-05-14T11:20:14.990Z,68.26
2016-05-14T11:21:15.008Z,68.07
2016-05-14T11:22:15.026Z,67.97
2016-05-14T11:23:15.013Z,67.49
2016-05-14T11:24:15.016Z,67.59
2016-05-14T11:25:15.019Z,67.4
2016-05-14T11:26:15.037Z,68.16
2016-05-14T11:27:15.040Z,67.97
2016-05-14T11:28:15.027Z,67.3
2016-05-14T11:29:15.029Z,67.02
2016-05-14T11:30:15.016Z,66.92
2016-05-14T11:31:15.019Z,65.87
2016-05-14T11:32:15.022Z,64.85
2016-05-14T11:33:15.399Z,63.89
2016-05-14T11:34:15.089Z,63.8
2016-05-14T11:35:15.030Z,64.18
2016-05-14T11:36:15.049Z,63.99
2016-05-14T11:37:15.051Z,63.99
2016-05-14T11:38:15.038Z,63.13
2016-05-14T11:39:15.025Z,63.26
2016-05-14T11:40:15.043Z,63.16
2016-05-14T11:41:15.077Z,62.4
2016-05-14T11:42:14.892Z,62.49
2016-05-14T11:43:14.895Z,62.59
2016-05-14T11:44:15.054Z,62.55
2016-05-14T11:45:15.057Z,63.32
2016-05-14T11:46:15.059Z,63.42
2016-05-14T11:47:15.062Z,63.6
2016-05-14T11:48:15.377Z,62.94
2016-05-14T11:49:15.146Z,62.97
2016-05-14T11:50:15.086Z,63.06
2016-05-14T11:51:14.932Z,62.87
2016-05-14T11:52:15.076Z,63.16
2016-05-14T11:53:15.079Z,62.59
2016-05-14T11:54:14.925Z,61.44
2016-05-14T11:55:14.928Z,61.15
2016-05-14T11:56:15.086Z,60.61
2016-05-14T11:57:15.073Z,61.08
2016-05-14T11:58:14.936Z,62.4
2016-05-14T11:59:15.078Z,63.16
2016-05-14T12:00:15.113Z,63.26
2016-05-14T12:01:15.099Z,63.42
2016-05-14T12:02:15.102Z,62.94
2016-05-14T12:03:15.105Z,62.94
2016-05-14T12:04:14.952Z,62.87
2016-05-14T12:05:15.110Z,62.4
2016-05-14T12:06:15.129Z,62.55
2016-05-14T12:07:15.116Z,62.59
2016-05-14T12:08:15.102Z,61.72
2016-05-14T12:09:15.122Z,61.15
2016-05-14T12:10:15.123Z,61.25
2016-05-14T12:11:14.954Z,61.34
2016-05-14T12:12:15.129Z,61.15
2016-05-14T12:13:15.132Z,60.67
2016-05-14T12:14:15.119Z,60.58
2016-05-14T12:15:15.122Z,60.67
2016-05-14T12:16:15.125Z,60.96
2016-05-14T12:17:15.002Z,60.67
2016-05-14T12:18:15.537Z,60.58
2016-05-14T12:19:16.554Z,60.67
2016-05-14T12:20:15.151Z,60.86
2016-05-14T12:21:14.998Z,59.72
2016-05-14T12:22:15.187Z,60.1
2016-05-14T12:23:15.143Z,59.81
2016-05-14T12:24:15.162Z,59.05
2016-05-14T12:25:15.148Z,58.86
2016-05-14T12:26:15.167Z,57.99
2016-05-14T12:27:15.154Z,56.77
2016-05-14T12:28:15.172Z,57.26
2016-05-14T12:29:15.175Z,56.68
2016-05-14T12:30:15.194Z,56.04
2016-05-14T12:31:15.180Z,56.13
2016-05-14T12:32:15.199Z,55.56
2016-05-14T12:33:15.201Z,55.75
2016-05-14T12:34:15.188Z,54.79
2016-05-14T12:35:15.175Z,55.27
2016-05-14T12:36:15.210Z,55.65
2016-05-14T12:37:15.180Z,55.56
2016-05-14T12:38:15.183Z,55.63
2016-05-14T12:39:15.186Z,55.56
2016-05-14T12:40:15.205Z,55.63
2016-05-14T12:41:15.224Z,56.49
2016-05-14T12:42:15.210Z,56.59
2016-05-14T12:43:15.229Z,56.49
2016-05-14T12:44:15.232Z,56.1
2016-05-14T12:45:15.218Z,55.05
2016-05-14T12:46:15.205Z,53.81
2016-05-14T12:47:15.207Z,54
2016-05-14T12:48:15.226Z,53.62
2016-05-14T12:49:15.245Z,53.04
2016-05-14T12:50:15.231Z,53.23
2016-05-14T12:51:15.235Z,53.71
2016-05-14T12:52:15.237Z,53.74
2016-05-14T12:53:15.239Z,54.32
2016-05-14T12:54:15.242Z,54.22
2016-05-14T12:55:15.245Z,54.28